createdAt,value
2024-03-24T00:00:26.239Z,0.00
2024-03-24T00:01:26.172Z,0.00
2024-03-24T00:02:26.192Z,0.00
2024-03-24T00:03:26.154Z,0.00
2024-03-24T00:04:26.227Z,0.00
2024-03-24T00:05:26.190Z,0.00
2024-03-24T00:06:26.125Z,0.00
2024-03-24T00:07:26.138Z,0.00
2024-03-24T00:08:26.134Z,0.00
2024-03-24T00:09:26.185Z,0.00
2024-03-24T00:10:26.079Z,0.00
2024-03-24T00:11:26.079Z,0.00
2024-03-24T00:12:26.064Z,0.00
2024-03-24T00:13:26.045Z,0.00
2024-03-24T00:14:26.127Z,0.00
2024-03-24T00:15:26.060Z,0.00
2024-03-24T00:16:26.027Z,0.00
2024-03-24T00:17:26.043Z,0.00
2024-03-24T00:18:26.022Z,0.00
2024-03-24T00:19:26.000Z,0.00
2024-03-24T00:20:25.989Z,0.00
2024-03-24T00:21:25.959Z,0.00
2024-03-24T00:22:25.954Z,0.00
2024-03-24T00:23:25.974Z,0.00
2024-03-24T00:24:25.947Z,0.00
2024-03-24T00:25:25.975Z,0.00
2024-03-24T00:26:25.916Z,0.00
2024-03-24T00:27:25.926Z,0.00
2024-03-24T00:28:25.944Z,0.00
2024-03-24T00:29:25.886Z,0.00
2024-03-24T00:30:25.900Z,0.00
2024-03-24T00:31:25.867Z,0.00
2024-03-24T00:32:25.904Z,0.00
2024-03-24T00:33:25.851Z,0.00
2024-03-24T00:34:25.837Z,0.00
2024-03-24T00:35:25.822Z,0.00
2024-03-24T00:36:25.832Z,0.00
2024-03-24T00:37:25.838Z,0.00
2024-03-24T00:38:25.823Z,0.00
2024-03-24T00:39:25.775Z,0.00
2024-03-24T00:40:25.783Z,0.00
2024-03-24T00:41:25.755Z,0.00
2024-03-24T00:42:25.809Z,0.00
2024-03-24T00:43:25.751Z,0.00
2024-03-24T00:44:25.742Z,0.00
2024-03-24T00:45:25.769Z,0.00
2024-03-24T00:46:25.708Z,0.00
2024-03-24T00:47:25.733Z,0.00
2024-03-24T00:48:25.692Z,0.00
2024-03-24T00:49:25.683Z,0.00
2024-03-24T00:50:25.709Z,0.00
2024-03-24T00:51:25.712Z,0.00
2024-03-24T00:52:25.722Z,0.00
2024-03-24T00:53:25.632Z,0.00
2024-03-24T00:54:25.636Z,0.00
2024-03-24T00:55:25.610Z,0.00
2024-03-24T00:56:25.640Z,0.00
2024-03-24T00:57:25.612Z,0.00
2024-03-24T00:58:25.591Z,0.00
2024-03-24T00:59:25.595Z,0.00
2024-03-24T01:00:25.617Z,0.00
2024-03-24T01:01:25.580Z,0.00
2024-03-24T01:02:25.684Z,0.00
2024-03-24T01:03:25.534Z,0.00
2024-03-24T01:04:25.538Z,0.00
2024-03-24T01:05:25.570Z,0.00
2024-03-24T01:06:25.505Z,0.00
2024-03-24T01:07:25.491Z,0.00
2024-03-24T01:08:25.530Z,0.00
2024-03-24T01:09:25.471Z,0.00
2024-03-24T01:10:25.477Z,0.00
2024-03-24T01:11:25.451Z,0.00
2024-03-24T01:12:25.454Z,0.00
2024-03-24T01:13:25.425Z,0.00
2024-03-24T01:14:25.459Z,0.00
2024-03-24T01:15:25.420Z,0.00
2024-03-24T01:16:25.429Z,0.00
2024-03-24T01:17:25.408Z,0.00
2024-03-24T01:18:25.386Z,0.00
2024-03-24T01:19:25.425Z,0.00
2024-03-24T01:20:25.388Z,0.00
2024-03-24T01:21:25.353Z,0.00
2024-03-24T01:22:25.353Z,0.00
2024-03-24T01:23:25.332Z,0.00
2024-03-24T01:24:25.342Z,0.00
2024-03-24T01:25:25.318Z,0.00
2024-03-24T01:26:25.318Z,0.00
2024-03-24T01:27:25.283Z,0.00
2024-03-24T01:28:25.316Z,0.00
2024-03-24T01:29:25.277Z,0.00
2024-03-24T01:30:25.287Z,0.00
2024-03-24T01:31:25.244Z,0.00
2024-03-24T01:32:25.251Z,0.00
2024-03-24T01:33:25.290Z,0.00
2024-03-24T01:34:25.254Z,0.00
2024-03-24T01:35:25.254Z,0.00
2024-03-24T01:36:25.193Z,0.00
2024-03-24T01:37:25.194Z,0.00
2024-03-24T01:38:25.206Z,0.00
2024-03-24T01:39:25.170Z,0.00
2024-03-24T01:40:25.181Z,0.00
2024-03-24T01:41:25.142Z,0.00
2024-03-24T01:42:25.171Z,0.00
2024-03-24T01:43:25.137Z,0.00
2024-03-24T01:44:25.125Z,0.00
2024-03-24T01:45:25.118Z,0.00
2024-03-24T01:46:25.094Z,0.00
2024-03-24T01:47:25.357Z,0.00
2024-03-24T01:48:25.093Z,0.00
2024-03-24T01:49:25.088Z,0.00
2024-03-24T01:50:25.067Z,0.00
2024-03-24T01:51:25.042Z,0.00
2024-03-24T01:52:25.854Z,0.00
2024-03-24T01:53:25.030Z,0.00
2024-03-24T01:54:25.024Z,0.00
2024-03-24T01:55:25.019Z,0.00
2024-03-24T01:56:25.021Z,0.00
2024-03-24T01:57:25.033Z,0.00
2024-03-24T01:58:24.983Z,0.00
2024-03-24T01:59:24.969Z,0.00
2024-03-24T02:00:24.956Z,0.00
2024-03-24T02:01:24.975Z,0.00
2024-03-24T02:02:24.963Z,0.00
2024-03-24T02:03:24.922Z,0.00
2024-03-24T02:04:24.978Z,0.00
2024-03-24T02:05:24.962Z,0.00
2024-03-24T02:06:25.469Z,0.00
2024-03-24T02:07:24.888Z,0.00
2024-03-24T02:08:24.914Z,0.00
2024-03-24T02:09:24.875Z,0.00
2024-03-24T02:10:24.905Z,0.00
2024-03-24T02:11:24.899Z,0.00
2024-03-24T02:12:24.848Z,0.00
2024-03-24T02:13:24.820Z,0.00
2024-03-24T02:14:24.826Z,0.00
2024-03-24T02:15:24.820Z,0.00
2024-03-24T02:16:24.843Z,0.00
2024-03-24T02:17:24.788Z,0.00
2024-03-24T02:18:24.786Z,0.00
2024-03-24T02:19:24.777Z,0.00
2024-03-24T02:20:24.808Z,0.00
2024-03-24T02:21:24.748Z,0.00
2024-03-24T02:22:24.771Z,0.00
2024-03-24T02:23:24.748Z,0.00
2024-03-24T02:24:24.715Z,0.00
2024-03-24T02:25:24.747Z,0.00
2024-03-24T02:26:24.718Z,0.00
2024-03-24T02:27:24.673Z,0.00
2024-03-24T02:28:24.677Z,0.00
2024-03-24T02:29:24.705Z,0.00
2024-03-24T02:30:24.675Z,0.00
2024-03-24T02:31:24.652Z,0.00
2024-03-24T02:32:24.692Z,0.00
2024-03-24T02:33:24.620Z,0.00
2024-03-24T02:34:24.632Z,0.00
2024-03-24T02:35:24.687Z,0.00
2024-03-24T02:36:24.595Z,0.00
2024-03-24T02:37:24.572Z,0.00
2024-03-24T02:38:24.570Z,0.00
2024-03-24T02:39:24.610Z,0.00
2024-03-24T02:40:24.566Z,0.00
2024-03-24T02:41:24.531Z,0.00
2024-03-24T02:42:24.550Z,0.00
2024-03-24T02:43:24.535Z,0.00
2024-03-24T02:44:24.567Z,0.00
2024-03-24T02:45:24.506Z,0.00
2024-03-24T02:46:24.512Z,0.00
2024-03-24T02:47:24.472Z,0.00
2024-03-24T02:48:24.494Z,0.00
2024-03-24T02:49:24.526Z,0.00
2024-03-24T02:50:24.469Z,0.00
2024-03-24T02:51:24.433Z,0.00
2024-03-24T02:52:24.436Z,0.00
2024-03-24T02:53:24.441Z,0.00
2024-03-24T02:54:24.424Z,0.00
2024-03-24T02:55:24.460Z,0.00
2024-03-24T02:56:24.392Z,0.00
2024-03-24T02:57:24.376Z,0.00
2024-03-24T02:58:24.381Z,0.00
2024-03-24T02:59:24.354Z,0.00
2024-03-24T03:00:24.370Z,0.00
2024-03-24T03:01:24.344Z,0.00
2024-03-24T03:02:24.340Z,0.00
2024-03-24T03:03:24.627Z,0.00
2024-03-24T03:04:24.310Z,0.00
2024-03-24T03:05:24.283Z,0.00
2024-03-24T03:06:24.363Z,0.00
2024-03-24T03:07:24.548Z,0.00
2024-03-24T03:08:24.311Z,0.00
2024-03-24T03:09:24.292Z,0.00
2024-03-24T03:10:24.247Z,0.00
2024-03-24T03:11:24.239Z,0.00
2024-03-24T03:12:24.236Z,0.00
2024-03-24T03:13:24.210Z,0.00
2024-03-24T03:14:24.225Z,0.00
2024-03-24T03:15:24.189Z,0.00
2024-03-24T03:16:24.230Z,0.00
2024-03-24T03:17:24.260Z,0.00
2024-03-24T03:18:24.189Z,0.00
2024-03-24T03:19:24.152Z,0.00
2024-03-24T03:20:24.151Z,0.00
2024-03-24T03:21:24.849Z,0.00
2024-03-24T03:22:24.113Z,0.00
2024-03-24T03:23:24.129Z,0.00
2024-03-24T03:24:24.092Z,0.00
2024-03-24T03:25:24.104Z,0.00
2024-03-24T03:26:24.120Z,0.00
2024-03-24T03:27:24.102Z,0.00
2024-03-24T03:28:24.080Z,0.00
2024-03-24T03:29:24.044Z,0.00
2024-03-24T03:30:24.046Z,0.00
2024-03-24T03:31:24.591Z,0.00
2024-03-24T03:32:24.009Z,0.00
2024-03-24T03:33:24.002Z,0.00
2024-03-24T03:34:24.023Z,0.00
2024-03-24T03:35:24.099Z,0.00
2024-03-24T03:36:23.985Z,0.00
2024-03-24T03:37:23.981Z,0.00
2024-03-24T03:38:23.943Z,0.00
2024-03-24T03:39:24.118Z,0.00
2024-03-24T03:40:23.952Z,0.00
2024-03-24T03:41:23.932Z,0.00
2024-03-24T03:42:23.925Z,0.00
2024-03-24T03:43:23.904Z,0.00
2024-03-24T03:44:23.929Z,0.00
2024-03-24T03:45:23.905Z,0.00
2024-03-24T03:46:23.887Z,0.00
2024-03-24T03:47:23.861Z,0.00
2024-03-24T03:48:23.857Z,0.00
2024-03-24T03:49:23.858Z,0.00
2024-03-24T03:50:23.850Z,0.00
2024-03-24T03:51:23.818Z,0.00
2024-03-24T03:52:23.933Z,0.00
2024-03-24T03:53:23.817Z,0.00
2024-03-24T03:54:23.807Z,0.00
2024-03-24T03:55:23.793Z,0.00
2024-03-24T03:56:23.896Z,0.00
2024-03-24T03:57:23.755Z,0.00
2024-03-24T03:58:23.771Z,0.00
2024-03-24T03:59:23.775Z,0.00
2024-03-24T04:00:23.734Z,0.00
2024-03-24T04:01:23.712Z,0.00
2024-03-24T04:02:23.710Z,0.00
2024-03-24T04:03:23.716Z,0.00
2024-03-24T04:04:23.828Z,0.00
2024-03-24T04:05:23.675Z,0.00
2024-03-24T04:06:23.743Z,0.00
2024-03-24T04:07:23.657Z,0.00
2024-03-24T04:08:23.683Z,0.00
2024-03-24T04:09:23.640Z,0.00
2024-03-24T04:10:23.645Z,0.00
2024-03-24T04:11:23.629Z,0.00
2024-03-24T04:12:23.615Z,0.00
2024-03-24T04:13:23.611Z,0.00
2024-03-24T04:14:23.586Z,0.00
2024-03-24T04:15:23.575Z,0.00
2024-03-24T04:16:23.574Z,0.00
2024-03-24T04:17:23.633Z,0.00
2024-03-24T04:18:23.545Z,0.00
2024-03-24T04:19:23.553Z,0.00
2024-03-24T04:20:23.522Z,0.00
2024-03-24T04:21:23.528Z,0.00
2024-03-24T04:22:23.521Z,0.00
2024-03-24T04:23:23.497Z,0.00
2024-03-24T04:24:23.475Z,0.00
2024-03-24T04:25:23.531Z,0.00
2024-03-24T04:26:23.456Z,0.00
2024-03-24T04:27:23.464Z,0.00
2024-03-24T04:28:23.426Z,0.00
2024-03-24T04:29:23.445Z,0.00
2024-03-24T04:30:23.416Z,0.00
2024-03-24T04:31:23.427Z,0.00
2024-03-24T04:32:23.459Z,0.00
2024-03-24T04:33:23.380Z,0.00
2024-03-24T04:34:23.373Z,0.00
2024-03-24T04:35:23.419Z,0.00
2024-03-24T04:36:23.394Z,0.00
2024-03-24T04:37:23.339Z,0.00
2024-03-24T04:38:23.323Z,0.00
2024-03-24T04:39:23.304Z,1.00
2024-03-24T04:40:23.310Z,0.00
2024-03-24T04:41:23.320Z,0.00
2024-03-24T04:42:23.307Z,0.00
2024-03-24T04:43:23.263Z,1.00
2024-03-24T04:44:23.206Z,1.00
2024-03-24T04:45:23.244Z,1.00
2024-03-24T04:46:23.202Z,1.00
2024-03-24T04:47:23.254Z,0.00
2024-03-24T04:48:23.225Z,0.00
2024-03-24T04:49:23.176Z,2.00
2024-03-24T04:50:23.187Z,1.00
2024-03-24T04:51:23.162Z,1.00
2024-03-24T04:52:23.176Z,0.00
2024-03-24T04:53:23.183Z,0.00
2024-03-24T04:54:23.188Z,0.00
2024-03-24T04:55:23.127Z,4.00
2024-03-24T04:56:23.086Z,4.00
2024-03-24T04:57:23.092Z,3.00
2024-03-24T04:58:23.094Z,6.00
2024-03-24T04:59:23.072Z,4.00
2024-03-24T05:00:23.066Z,4.00
2024-03-24T05:01:23.043Z,4.00
2024-03-24T05:02:23.023Z,4.00
2024-03-24T05:03:23.022Z,4.00
2024-03-24T05:04:23.083Z,3.00
2024-03-24T05:05:23.034Z,3.00
2024-03-24T05:06:23.038Z,5.00
2024-03-24T05:07:22.977Z,2.00
2024-03-24T05:08:22.975Z,2.00
2024-03-24T05:09:22.994Z,4.00
2024-03-24T05:10:22.978Z,8.00
2024-03-24T05:11:22.949Z,10.00
2024-03-24T05:12:22.919Z,11.00
2024-03-24T05:13:22.943Z,12.00
2024-03-24T05:14:22.932Z,8.00
2024-03-24T05:15:22.894Z,13.00
2024-03-24T05:16:22.909Z,13.00
2024-03-24T05:17:22.952Z,13.00
2024-03-24T05:18:22.882Z,11.00
2024-03-24T05:19:22.913Z,14.00
2024-03-24T05:20:22.874Z,14.00
2024-03-24T05:21:22.850Z,14.00
2024-03-24T05:22:22.832Z,25.00
2024-03-24T05:23:22.848Z,27.00
2024-03-24T05:24:22.878Z,18.00
2024-03-24T05:25:22.885Z,29.00
2024-03-24T05:26:22.791Z,32.00
2024-03-24T05:27:22.778Z,36.00
2024-03-24T05:28:22.812Z,42.00
2024-03-24T05:29:22.765Z,38.00
2024-03-24T05:30:22.743Z,45.00
2024-03-24T05:31:22.737Z,37.00
2024-03-24T05:32:22.759Z,41.00
2024-03-24T05:33:22.926Z,38.00
2024-03-24T05:34:22.738Z,35.00
2024-03-24T05:35:22.704Z,34.00
2024-03-24T05:36:22.689Z,39.00
2024-03-24T05:37:22.724Z,51.00
2024-03-24T05:38:22.701Z,70.00
2024-03-24T05:39:22.667Z,79.00
2024-03-24T05:40:22.752Z,79.00
2024-03-24T05:41:22.663Z,76.00
2024-03-24T05:42:22.635Z,71.00
2024-03-24T05:43:22.653Z,101.00
2024-03-24T05:44:22.599Z,99.00
2024-03-24T05:45:22.629Z,91.00
2024-03-24T05:46:22.580Z,118.00
2024-03-24T05:47:22.587Z,134.00
2024-03-24T05:48:22.618Z,144.00
2024-03-24T05:49:22.602Z,161.00
2024-03-24T05:50:22.560Z,180.00
2024-03-24T05:51:22.565Z,146.00
2024-03-24T05:52:22.539Z,175.00
2024-03-24T05:53:22.561Z,227.00
2024-03-24T05:54:22.503Z,178.00
2024-03-24T05:55:22.493Z,205.00
2024-03-24T05:56:22.500Z,183.00
2024-03-24T05:57:22.501Z,219.00
2024-03-24T05:58:22.462Z,208.00
2024-03-24T05:59:22.504Z,174.00
2024-03-24T06:00:22.476Z,149.00
2024-03-24T06:01:22.455Z,157.00
2024-03-24T06:02:22.444Z,147.00
2024-03-24T06:03:22.430Z,137.00
2024-03-24T06:04:22.398Z,120.00
2024-03-24T06:05:22.425Z,146.00
2024-03-24T06:06:22.464Z,161.00
2024-03-24T06:07:22.388Z,169.00
2024-03-24T06:08:22.866Z,159.00
2024-03-24T06:09:22.358Z,156.00
2024-03-24T06:10:22.376Z,179.00
2024-03-24T06:11:22.342Z,173.00
2024-03-24T06:12:22.314Z,178.00
2024-03-24T06:13:22.322Z,185.00
2024-03-24T06:14:22.299Z,161.00
2024-03-24T06:15:22.428Z,205.00
2024-03-24T06:16:22.281Z,144.00
2024-03-24T06:17:22.271Z,122.00
2024-03-24T06:18:22.268Z,135.00
2024-03-24T06:19:22.644Z,163.00
2024-03-24T06:20:22.270Z,138.00
2024-03-24T06:21:22.261Z,170.00
2024-03-24T06:22:22.273Z,197.00
2024-03-24T06:23:22.216Z,224.00
2024-03-24T06:24:22.299Z,276.00
2024-03-24T06:25:22.227Z,225.00
2024-03-24T06:26:22.182Z,245.00
2024-03-24T06:27:22.191Z,273.00
2024-03-24T06:28:22.220Z,306.00
2024-03-24T06:29:22.188Z,297.00
2024-03-24T06:30:22.136Z,255.00
2024-03-24T06:31:22.131Z,215.00
2024-03-24T06:32:22.118Z,176.00
2024-03-24T06:33:22.167Z,136.00
2024-03-24T06:34:22.106Z,141.00
2024-03-24T06:35:22.083Z,208.00
2024-03-24T06:36:22.073Z,316.00
2024-03-24T06:37:22.082Z,355.00
2024-03-24T06:38:22.170Z,625.00
2024-03-24T06:39:22.096Z,695.00
2024-03-24T06:40:22.052Z,707.00
2024-03-24T06:41:22.030Z,731.00
2024-03-24T06:42:22.080Z,724.00
2024-03-24T06:43:22.068Z,766.00
2024-03-24T06:44:22.024Z,875.00
2024-03-24T06:45:21.981Z,709.00
2024-03-24T06:46:22.067Z,535.00
2024-03-24T06:47:21.986Z,451.00
2024-03-24T06:48:22.018Z,419.00
2024-03-24T06:49:22.022Z,348.00
2024-03-24T06:50:21.933Z,348.00
2024-03-24T06:51:22.005Z,332.00
2024-03-24T06:52:21.973Z,397.00
2024-03-24T06:53:21.945Z,378.00
2024-03-24T06:54:21.904Z,455.00
2024-03-24T06:55:21.918Z,402.00
2024-03-24T06:56:21.907Z,407.00
2024-03-24T06:57:21.938Z,454.00
2024-03-24T06:58:21.881Z,424.00
2024-03-24T06:59:21.910Z,523.00
2024-03-24T07:00:21.836Z,462.00
2024-03-24T07:01:21.957Z,429.00
2024-03-24T07:02:21.826Z,387.00
2024-03-24T07:03:21.821Z,367.00
2024-03-24T07:04:21.896Z,453.00
2024-03-24T07:05:21.781Z,444.00
2024-03-24T07:06:21.784Z,660.00
2024-03-24T07:07:21.836Z,784.00
2024-03-24T07:08:21.786Z,839.00
2024-03-24T07:09:21.899Z,773.00
2024-03-24T07:10:21.771Z,757.00
2024-03-24T07:11:21.747Z,595.00
2024-03-24T07:12:21.708Z,481.00
2024-03-24T07:13:21.755Z,470.00
2024-03-24T07:14:21.736Z,493.00
2024-03-24T07:15:21.706Z,486.00
2024-03-24T07:16:21.712Z,459.00
2024-03-24T07:17:21.664Z,732.00
2024-03-24T07:18:21.662Z,643.00
2024-03-24T07:19:21.722Z,582.00
2024-03-24T07:20:21.646Z,426.00
2024-03-24T07:21:21.703Z,400.00
2024-03-24T07:22:21.635Z,427.00
2024-03-24T07:23:21.622Z,599.00
2024-03-24T07:24:21.586Z,528.00
2024-03-24T07:25:21.700Z,568.00
2024-03-24T07:26:23.239Z,701.00
2024-03-24T07:27:21.567Z,704.00
2024-03-24T07:28:21.783Z,526.00
2024-03-24T07:29:21.590Z,537.00
2024-03-24T07:30:21.554Z,611.00
2024-03-24T07:31:21.533Z,577.00
2024-03-24T07:32:21.509Z,499.00
2024-03-24T07:33:21.544Z,490.00
2024-03-24T07:34:21.599Z,474.00
2024-03-24T07:35:21.504Z,490.00
2024-03-24T07:36:21.480Z,471.00
2024-03-24T07:37:21.475Z,562.00
2024-03-24T07:38:21.460Z,545.00
2024-03-24T07:39:21.455Z,526.00
2024-03-24T07:40:21.444Z,558.00
2024-03-24T07:41:21.417Z,642.00
2024-03-24T07:42:21.417Z,702.00
2024-03-24T07:43:21.466Z,893.00
2024-03-24T07:44:21.460Z,981.00
2024-03-24T07:45:21.372Z,773.00
2024-03-24T07:46:21.441Z,673.00
2024-03-24T07:47:21.379Z,556.00
2024-03-24T07:48:21.379Z,553.00
2024-03-24T07:49:21.389Z,725.00
2024-03-24T07:50:21.452Z,754.00
2024-03-24T07:51:21.319Z,975.00
2024-03-24T07:52:21.414Z,671.00
2024-03-24T07:53:21.319Z,1038.00
2024-03-24T07:54:21.287Z,1747.00
2024-03-24T07:55:21.508Z,1477.00
2024-03-24T07:56:21.277Z,1254.00
2024-03-24T07:57:21.290Z,1122.00
2024-03-24T07:58:21.250Z,1236.00
2024-03-24T07:59:21.241Z,1419.00
2024-03-24T08:00:21.426Z,1228.00
2024-03-24T08:01:21.261Z,1070.00
2024-03-24T08:02:21.284Z,810.00
2024-03-24T08:03:21.187Z,843.00
2024-03-24T08:04:21.186Z,919.00
2024-03-24T08:05:21.186Z,1182.00
2024-03-24T08:06:21.190Z,1329.00
2024-03-24T08:07:21.194Z,1303.00
2024-03-24T08:08:21.244Z,1077.00
2024-03-24T08:09:21.124Z,952.00
2024-03-24T08:10:21.181Z,703.00
2024-03-24T08:11:21.140Z,728.00
2024-03-24T08:12:21.107Z,876.00
2024-03-24T08:13:21.102Z,1012.00
2024-03-24T08:14:21.084Z,1261.00
2024-03-24T08:15:21.064Z,1332.00
2024-03-24T08:16:21.118Z,1779.00
2024-03-24T08:17:21.050Z,2004.00
2024-03-24T08:18:21.044Z,2121.00
2024-03-24T08:19:21.089Z,1731.00
2024-03-24T08:20:21.024Z,1395.00
2024-03-24T08:21:21.025Z,1252.00
2024-03-24T08:22:21.000Z,979.00
2024-03-24T08:23:21.000Z,990.00
2024-03-24T08:24:20.983Z,1040.00
2024-03-24T08:25:20.997Z,884.00
2024-03-24T08:26:20.990Z,1319.00
2024-03-24T08:27:20.953Z,1342.00
2024-03-24T08:28:20.953Z,1235.00
2024-03-24T08:29:20.920Z,1253.00
2024-03-24T08:30:20.996Z,1170.00
2024-03-24T08:31:20.911Z,1252.00
2024-03-24T08:32:20.959Z,1250.00
2024-03-24T08:33:20.930Z,1047.00
2024-03-24T08:34:20.899Z,936.00
2024-03-24T08:35:20.882Z,787.00
2024-03-24T08:36:20.891Z,968.00
2024-03-24T08:37:20.854Z,1093.00
2024-03-24T08:38:20.972Z,1054.00
2024-03-24T08:39:20.862Z,1062.00
2024-03-24T08:40:20.873Z,798.00
2024-03-24T08:41:20.853Z,910.00
2024-03-24T08:42:20.988Z,986.00
2024-03-24T08:43:20.815Z,1249.00
2024-03-24T08:44:20.794Z,1495.00
2024-03-24T08:45:20.811Z,1612.00
2024-03-24T08:46:20.758Z,1337.00
2024-03-24T08:47:20.752Z,1171.00
2024-03-24T08:48:24.608Z,981.00
2024-03-24T08:49:20.787Z,991.00
2024-03-24T08:50:20.729Z,1114.00
2024-03-24T08:51:20.700Z,938.00
2024-03-24T08:52:20.715Z,869.00
2024-03-24T08:53:20.717Z,810.00
2024-03-24T08:54:20.697Z,814.00
2024-03-24T08:55:20.685Z,875.00
2024-03-24T08:56:20.651Z,824.00
2024-03-24T08:57:20.642Z,807.00
2024-03-24T08:58:20.710Z,847.00
2024-03-24T08:59:20.618Z,966.00
2024-03-24T09:00:20.649Z,1267.00
2024-03-24T09:01:20.610Z,1206.00
2024-03-24T09:02:20.634Z,1079.00
2024-03-24T09:03:20.603Z,1004.00
2024-03-24T09:04:20.587Z,1393.00
2024-03-24T09:05:20.553Z,1504.00
2024-03-24T09:06:20.559Z,1214.00
2024-03-24T09:07:20.569Z,1188.00
2024-03-24T09:08:20.550Z,1345.00
2024-03-24T09:09:22.372Z,1179.00
2024-03-24T09:10:20.519Z,1229.00
2024-03-24T09:11:20.559Z,1376.00
2024-03-24T09:12:20.518Z,1399.00
2024-03-24T09:13:20.472Z,1575.00
2024-03-24T09:14:20.509Z,1413.00
2024-03-24T09:15:20.462Z,1373.00
2024-03-24T09:16:20.503Z,1336.00
2024-03-24T09:17:20.456Z,1364.00
2024-03-24T09:18:20.432Z,1306.00
2024-03-24T09:19:20.444Z,1169.00
2024-03-24T09:20:20.412Z,1282.00
2024-03-24T09:21:20.490Z,1306.00
2024-03-24T09:22:20.387Z,1291.00
2024-03-24T09:23:20.392Z,1161.00
2024-03-24T09:24:20.374Z,1299.00
2024-03-24T09:25:20.376Z,1043.00
2024-03-24T09:26:20.388Z,988.00
2024-03-24T09:27:20.327Z,1628.00
2024-03-24T09:28:20.350Z,2326.00
2024-03-24T09:29:20.315Z,2588.00
2024-03-24T09:30:20.333Z,1802.00
2024-03-24T09:31:20.366Z,1438.00
2024-03-24T09:32:20.301Z,1880.00
2024-03-24T09:33:20.887Z,2038.00
2024-03-24T09:34:20.286Z,2247.00
2024-03-24T09:35:20.274Z,2033.00
2024-03-24T09:36:20.269Z,1674.00
2024-03-24T09:37:20.232Z,1328.00
2024-03-24T09:38:20.240Z,961.00
2024-03-24T09:39:20.271Z,1081.00
2024-03-24T09:40:20.237Z,1134.00
2024-03-24T09:41:20.194Z,2218.00
2024-03-24T09:42:20.204Z,4293.00
2024-03-24T09:43:20.207Z,4340.00
2024-03-24T09:44:20.185Z,4290.00
2024-03-24T09:45:20.179Z,3810.00
2024-03-24T09:46:20.171Z,3675.00
2024-03-24T09:47:20.157Z,3889.00
2024-03-24T09:48:20.143Z,3256.00
2024-03-24T09:49:20.153Z,4389.00
2024-03-24T09:50:20.108Z,4155.00
2024-03-24T09:51:20.096Z,3175.00
2024-03-24T09:52:20.100Z,5841.00
2024-03-24T09:53:20.167Z,7852.00
2024-03-24T09:54:20.080Z,11017.00
2024-03-24T09:55:20.087Z,11505.00
2024-03-24T09:56:20.056Z,6606.00
2024-03-24T09:57:20.038Z,4983.00
2024-03-24T09:58:20.030Z,3320.00
2024-03-24T09:59:20.867Z,3600.00
2024-03-24T10:00:20.017Z,2157.00
2024-03-24T10:01:19.980Z,4652.00
2024-03-24T10:02:20.004Z,6006.00
2024-03-24T10:03:19.981Z,6437.00
2024-03-24T10:04:20.056Z,2638.00
2024-03-24T10:05:19.958Z,3556.00
2024-03-24T10:06:19.940Z,13323.00
2024-03-24T10:07:19.933Z,14717.00
2024-03-24T10:08:19.948Z,7499.00
2024-03-24T10:09:19.962Z,3051.00
2024-03-24T10:10:19.897Z,13765.00
2024-03-24T10:11:19.944Z,9307.00
2024-03-24T10:12:19.906Z,12332.00
2024-03-24T10:13:19.948Z,6273.00
2024-03-24T10:14:19.882Z,11491.00
2024-03-24T10:15:19.844Z,11134.00
2024-03-24T10:16:19.857Z,7956.00
2024-03-24T10:17:22.590Z,6628.00
2024-03-24T10:18:19.828Z,5177.00
2024-03-24T10:19:19.864Z,4807.00
2024-03-24T10:20:19.844Z,4415.00
2024-03-24T10:21:19.786Z,4337.00
2024-03-24T10:22:19.808Z,3188.00
2024-03-24T10:23:19.783Z,2269.00
2024-03-24T10:24:23.120Z,1687.00
2024-03-24T10:25:19.741Z,1395.00
2024-03-24T10:26:19.815Z,1047.00
2024-03-24T10:27:19.739Z,614.00
2024-03-24T10:28:19.724Z,441.00
2024-03-24T10:29:19.688Z,698.00
2024-03-24T10:30:19.685Z,1305.00
2024-03-24T10:31:19.734Z,1624.00
2024-03-24T10:32:26.741Z,1748.00
2024-03-24T10:33:19.656Z,3735.00
2024-03-24T10:34:19.660Z,3452.00
2024-03-24T10:35:19.626Z,4351.00
2024-03-24T10:36:19.661Z,4353.00
2024-03-24T10:37:19.668Z,3375.00
2024-03-24T10:38:19.617Z,2786.00
2024-03-24T10:39:19.598Z,2815.00
2024-03-24T10:40:19.640Z,2976.00
2024-03-24T10:41:19.627Z,2967.00
2024-03-24T10:42:19.654Z,2545.00
2024-03-24T10:43:19.548Z,1946.00
2024-03-24T10:44:19.571Z,1614.00
2024-03-24T10:45:19.517Z,1282.00
2024-03-24T10:46:22.463Z,1105.00
2024-03-24T10:47:19.517Z,944.00
2024-03-24T10:48:19.513Z,809.00
2024-03-24T10:49:19.477Z,776.00
2024-03-24T10:50:19.531Z,639.00
2024-03-24T10:51:19.497Z,559.00
2024-03-24T10:52:19.475Z,683.00
2024-03-24T10:53:19.464Z,1106.00
2024-03-24T10:54:19.455Z,1088.00
2024-03-24T10:55:22.616Z,1316.00
2024-03-24T10:56:19.421Z,1689.00
2024-03-24T10:57:19.391Z,1490.00
2024-03-24T10:58:19.402Z,1770.00
2024-03-24T10:59:19.386Z,1564.00
2024-03-24T11:00:19.414Z,1709.00
2024-03-24T11:01:19.352Z,1550.00
2024-03-24T11:02:19.359Z,1249.00
2024-03-24T11:03:19.331Z,1305.00
2024-03-24T11:04:19.365Z,1566.00
2024-03-24T11:05:21.404Z,1637.00
2024-03-24T11:06:19.326Z,1642.00
2024-03-24T11:07:19.422Z,1661.00
2024-03-24T11:08:19.294Z,1824.00
2024-03-24T11:09:19.299Z,1442.00
2024-03-24T11:10:19.294Z,1484.00
2024-03-24T11:11:19.271Z,1789.00
2024-03-24T11:12:21.241Z,2142.00
2024-03-24T11:13:19.239Z,2029.00
2024-03-24T11:14:19.636Z,2148.00
2024-03-24T11:15:19.234Z,1601.00
2024-03-24T11:16:19.218Z,2933.00
2024-03-24T11:17:19.199Z,2999.00
2024-03-24T11:18:19.237Z,2693.00
2024-03-24T11:19:19.201Z,2388.00
2024-03-24T11:20:19.181Z,2283.00
2024-03-24T11:21:25.202Z,2207.00
2024-03-24T11:22:19.147Z,2468.00
2024-03-24T11:23:19.150Z,2123.00
2024-03-24T11:24:19.129Z,1936.00
2024-03-24T11:25:19.118Z,1736.00
2024-03-24T11:26:19.107Z,1651.00
2024-03-24T11:27:19.119Z,1771.00
2024-03-24T11:28:19.112Z,1355.00
2024-03-24T11:29:19.073Z,1292.00
2024-03-24T11:30:19.066Z,1272.00
2024-03-24T11:31:19.048Z,1494.00
2024-03-24T11:32:19.067Z,2006.00
2024-03-24T11:33:19.057Z,2125.00
2024-03-24T11:34:19.028Z,1952.00
2024-03-24T11:35:19.010Z,2092.00
2024-03-24T11:36:19.007Z,2145.00
2024-03-24T11:37:19.001Z,1787.00
2024-03-24T11:38:18.990Z,1149.00
2024-03-24T11:39:18.971Z,1153.00
2024-03-24T11:40:18.979Z,2160.00
2024-03-24T11:41:18.952Z,2713.00
2024-03-24T11:42:18.960Z,3310.00
2024-03-24T11:43:18.927Z,2925.00
2024-03-24T11:44:18.937Z,2436.00
2024-03-24T11:45:18.909Z,1985.00
2024-03-24T11:46:18.901Z,1724.00
2024-03-24T11:47:18.910Z,1648.00
2024-03-24T11:48:18.886Z,1681.00
2024-03-24T11:49:18.871Z,2275.00
2024-03-24T11:50:18.862Z,2481.00
2024-03-24T11:51:18.874Z,2688.00
2024-03-24T11:52:18.853Z,2449.00
2024-03-24T11:53:18.829Z,2079.00
2024-03-24T11:54:18.815Z,2032.00
2024-03-24T11:55:18.809Z,2205.00
2024-03-24T11:56:18.804Z,2288.00
2024-03-24T11:57:18.792Z,2276.00
2024-03-24T11:58:18.773Z,2620.00
2024-03-24T11:59:18.769Z,2305.00
2024-03-24T12:00:18.758Z,1759.00
2024-03-24T12:01:18.761Z,1629.00
2024-03-24T12:02:18.731Z,2005.00
2024-03-24T12:03:18.730Z,2929.00
2024-03-24T12:04:18.705Z,3117.00
2024-03-24T12:05:18.751Z,3107.00
2024-03-24T12:06:18.706Z,2943.00
2024-03-24T12:07:18.687Z,2429.00
2024-03-24T12:08:18.660Z,2071.00
2024-03-24T12:09:18.660Z,2458.00
2024-03-24T12:10:18.674Z,2957.00
2024-03-24T12:11:18.652Z,2640.00
2024-03-24T12:12:18.621Z,2003.00
2024-03-24T12:13:18.623Z,1700.00
2024-03-24T12:14:18.602Z,1855.00
2024-03-24T12:15:18.619Z,2023.00
2024-03-24T12:16:18.592Z,2147.00
2024-03-24T12:17:18.572Z,2361.00
2024-03-24T12:18:18.564Z,2454.00
2024-03-24T12:19:18.572Z,2724.00
2024-03-24T12:20:18.562Z,3388.00
2024-03-24T12:21:18.533Z,3026.00
2024-03-24T12:22:18.521Z,3046.00
2024-03-24T12:23:18.530Z,2581.00
2024-03-24T12:24:18.511Z,2142.00
2024-03-24T12:25:18.523Z,1878.00
2024-03-24T12:26:18.468Z,1874.00
2024-03-24T12:27:18.472Z,2011.00
2024-03-24T12:28:18.448Z,1716.00
2024-03-24T12:29:18.463Z,1695.00
2024-03-24T12:30:18.433Z,1740.00
2024-03-24T12:31:18.434Z,1954.00
2024-03-24T12:32:18.410Z,1627.00
2024-03-24T12:33:18.423Z,1341.00
2024-03-24T12:34:18.417Z,1236.00
2024-03-24T12:35:18.390Z,1032.00
2024-03-24T12:36:18.365Z,842.00
2024-03-24T12:37:18.362Z,790.00
2024-03-24T12:38:18.366Z,916.00
2024-03-24T12:39:18.337Z,948.00
2024-03-24T12:40:18.323Z,1265.00
2024-03-24T12:41:18.318Z,1767.00